Map

Track Data

SID SEASON NUMBER BASIN SUBBASIN NAME ISO_TIME NATURE LAT LON WMO_WIND WMO_PRES WMO_AGENCY TRACK_TYPE DIST2LAND LANDFALL IFLAG USA_AGENCY USA_ATCF_ID USA_LAT USA_LON USA_RECORD USA_STATUS USA_WIND USA_PRES USA_SSHS USA_R34_NE USA_R34_SE USA_R34_SW USA_R34_NW USA_R50_NE USA_R50_SE USA_R50_SW USA_R50_NW USA_R64_NE USA_R64_SE USA_R64_SW USA_R64_NW USA_POCI USA_ROCI USA_RMW USA_EYE TOKYO_LAT TOKYO_LON TOKYO_GRADE TOKYO_WIND TOKYO_PRES TOKYO_R50_DIR TOKYO_R50_LONG TOKYO_R50_SHORT TOKYO_R30_DIR TOKYO_R30_LONG TOKYO_R30_SHORT TOKYO_LAND CMA_LAT CMA_LON CMA_CAT CMA_WIND CMA_PRES HKO_LAT HKO_LON HKO_CAT HKO_WIND HKO_PRES NEWDELHI_LAT NEWDELHI_LON NEWDELHI_GRADE NEWDELHI_WIND NEWDELHI_PRES NEWDELHI_CI NEWDELHI_DP NEWDELHI_POCI REUNION_LAT REUNION_LON REUNION_TYPE REUNION_WIND REUNION_PRES REUNION_TNUM REUNION_CI REUNION_RMW REUNION_R34_NE REUNION_R34_SE REUNION_R34_SW REUNION_R34_NW REUNION_R50_NE REUNION_R50_SE REUNION_R50_SW REUNION_R50_NW REUNION_R64_NE REUNION_R64_SE REUNION_R64_SW REUNION_R64_NW BOM_LAT BOM_LON BOM_TYPE BOM_WIND BOM_PRES BOM_TNUM BOM_CI BOM_RMW BOM_R34_NE BOM_R34_SE BOM_R34_SW BOM_R34_NW BOM_R50_NE BOM_R50_SE BOM_R50_SW BOM_R50_NW BOM_R64_NE BOM_R64_SE BOM_R64_SW BOM_R64_NW BOM_ROCI BOM_POCI BOM_EYE BOM_POS_METHOD BOM_PRES_METHOD NADI_LAT NADI_LON NADI_CAT NADI_WIND NADI_PRES WELLINGTON_LAT WELLINGTON_LON WELLINGTON_WIND WELLINGTON_PRES DS824_LAT DS824_LON DS824_STAGE DS824_WIND DS824_PRES TD9636_LAT TD9636_LON TD9636_STAGE TD9636_WIND TD9636_PRES TD9635_LAT TD9635_LON TD9635_WIND TD9635_PRES TD9635_ROCI NEUMANN_LAT NEUMANN_LON NEUMANN_CLASS NEUMANN_WIND NEUMANN_PRES MLC_LAT MLC_LON MLC_CLASS MLC_WIND MLC_PRES USA_GUST BOM_GUST BOM_GUST_PER REUNION_GUST REUNION_GUST_PER USA_SEAHGT USA_SEARAD_NE USA_SEARAD_SE USA_SEARAD_SW USA_SEARAD_NW STORM_SPEED STORM_DIR
2022128S09090 2022 26 SI WA KARIM 2022-05-07 12:00:00 NR -8.50000 90.0000 PROVISIONAL 1246 1244 O_____________ tcvitals SI252022 -8.50000 90.0000 39 994 0 45 130 155 120 1003 190 35 6 152
2022128S09090 2022 26 SI WA KARIM 2022-05-07 15:00:00 NR -8.75500 90.1351 PROVISIONAL 1258 1249 P_____________ SI252022 -8.75500 90.1351 42 993 0 47 132 135 110 1003 197 35 7 154
2022128S09090 2022 26 SI WA KARIM 2022-05-07 18:00:00 NR -9.10000 90.3000 PROVISIONAL 1262 1261 O_____________ tcvitals SI252022 -9.10000 90.3000 45 992 0 50 135 115 100 1003 205 35 9 156
2022128S09090 2022 26 SI WA KARIM 2022-05-07 21:00:00 NR -9.57251 90.4949 PROVISIONAL 1283 1283 P_____________ SI252022 -9.57251 90.4949 49 990 0 75 120 132 87 1003 212 27 10 162
2022128S09090 2022 26 SI WA KARIM 2022-05-08 00:00:00 NR -10.0000 90.6000 PROVISIONAL 1306 1306 O_____________ tcvitals SI252022 -10.0000 90.6000 54 988 0 100 105 150 75 1003 220 20 6 184
2022128S09090 2022 26 SI WA KARIM 2022-05-08 03:00:00 NR -10.1800 90.4576 PROVISIONAL 1330 1330 P_____________ SI252022 -10.1800 90.4576 54 987 0 100 105 150 75 1003 220 22 4 224
2022128S09090 2022 26 SI WA KARIM 2022-05-08 06:00:00 NR -10.3000 90.3000 PROVISIONAL 1353 1353 O_____________ tcvitals SI252022 -10.3000 90.3000 54 986 0 100 105 150 75 1003 220 25 4 194
2022128S09090 2022 26 SI WA KARIM 2022-05-08 09:00:00 NR -10.5500 90.3624 PROVISIONAL 1362 1370 P_____________ SI252022 -10.5500 90.3624 57 984 0 113 122 140 105 1003 220 22 5 158
2022128S09090 2022 26 SI WA KARIM 2022-05-08 12:00:00 NR -10.8000 90.5000 PROVISIONAL 1378 1378 O_____________ tcvitals SI252022 -10.8000 90.5000 60 982 0 126 140 130 135 1003 220 20 5 150
2022128S09090 2022 26 SI WA KARIM 2022-05-08 15:00:00 NR -10.9575 90.6000 PROVISIONAL 1388 1380 P_____________ SI252022 -10.9575 90.6000 60 982 0 113 117 130 115 1003 220 15 4 147
2022128S09090 2022 26 SI WA KARIM 2022-05-08 18:00:00 NR -11.1000 90.7000 PROVISIONAL 1389 1389 O_____________ tcvitals SI252022 -11.1000 90.7000 60 983 0 100 95 130 95 1003 220 10 4 145
2022128S09090 2022 26 SI WA KARIM 2022-05-08 21:00:00 NR -11.2625 90.8225 PROVISIONAL 1399 1391 P_____________ SI252022 -11.2625 90.8225 60 983 0 102 102 132 92 1003 220 12 4 154
2022128S09090 2022 26 SI WA KARIM 2022-05-09 00:00:00 NR -11.5000 90.9000 PROVISIONAL 1409 1409 O_____________ tcvitals SI252022 -11.5000 90.9000 60 983 0 105 110 135 90 1003 220 14 6 176
2022128S09090 2022 26 SI WA KARIM 2022-05-09 03:00:00 NR -11.8625 90.8576 PROVISIONAL 1444 1444 P_____________ SI252022 -11.8625 90.8576 60 983 0 115 118 115 90 1003 225 14 8 187
2022128S09090 2022 26 SI WA KARIM 2022-05-09 06:00:00 NR -12.3000 90.8000 PROVISIONAL 1486 1486 O_____________ tcvitals SI252022 -12.3000 90.8000 60 983 0 126 126 95 90 1003 230 14 9 183
2022128S09090 2022 26 SI WA KARIM 2022-05-09 09:00:00 NR -12.7425 90.8275 PROVISIONAL 1521 1521 P_____________ SI252022 -12.7425 90.8275 60 983 0 118 128 95 87 1003 230 14 9 174
2022128S09090 2022 26 SI WA KARIM 2022-05-09 12:00:00 NR -13.2000 90.9000 PROVISIONAL 1560 1560 O_____________ tcvitals SI252022 -13.2000 90.9000 60 984 0 110 130 95 85 1003 230 14 9 171
2022128S09090 2022 26 SI WA KARIM 2022-05-09 15:00:00 NR -13.6200 90.9702 PROVISIONAL 1591 1591 P_____________ SI252022 -13.6200 90.9702 60 984 0 115 128 95 82 1003 230 14 9 168
2022128S09090 2022 26 SI WA KARIM 2022-05-09 18:00:00 NR -14.1000 91.1000 PROVISIONAL 1632 1632 O_____________ tcvitals SI252022 -14.1000 91.1000 60 984 0 120 126 95 80 1003 230 14 12 162
2022128S09090 2022 26 SI WA KARIM 2022-05-09 21:00:00 NR -14.7276 91.3348 PROVISIONAL 1678 1678 P_____________ SI252022 -14.7276 91.3348 60 985 0 127 128 87 90 1004 257 22 14 160
2022128S09090 2022 26 SI WA KARIM 2022-05-10 00:00:00 NR -15.4000 91.6000 PROVISIONAL 1731 1731 O_____________ tcvitals SI252022 -15.4000 91.6000 60 987 0 135 130 80 100 1005 285 30 14 161
2022128S09090 2022 26 SI WA KARIM 2022-05-10 03:00:00 NR -16.0224 91.8002 PROVISIONAL 1767 1767 P_____________ SI252022 -16.0224 91.8002 60 987 0 135 122 95 107 1005 287 30 13 162
2022128S09090 2022 26 SI WA KARIM 2022-05-10 06:00:00 NR -16.6000 92.0000 PROVISIONAL 1803 1803 O_____________ tcvitals SI252022 -16.6000 92.0000 60 988 0 135 115 110 115 1006 290 30 12 159
2022128S09090 2022 26 SI WA KARIM 2022-05-10 09:00:00 NR -17.1074 92.2278 PROVISIONAL 1823 1820 P_____________ SI252022 -17.1074 92.2278 57 989 0 132 120 92 97 1005 290 30 11 154
2022128S09090 2022 26 SI WA KARIM 2022-05-10 12:00:00 NR -17.6000 92.5000 PROVISIONAL 1833 1832 O_____________ tcvitals SI252022 -17.6000 92.5000 54 990 0 130 126 75 80 1005 290 30 12 151
2022128S09090 2022 26 SI WA KARIM 2022-05-10 15:00:00 NR -18.1575 92.8350 PROVISIONAL 1853 1845 P_____________ SI252022 -18.1575 92.8350 52 989 0 175 188 122 140 1005 270 30 13 149
2022128S09090 2022 26 SI WA KARIM 2022-05-10 18:00:00 NR -18.7000 93.2000 PROVISIONAL 1861 1861 O_____________ tcvitals SI252022 -18.7000 93.2000 51 989 0 220 250 170 200 1005 250 30 13 150
2022128S09090 2022 26 SI WA KARIM 2022-05-10 21:00:00 NR -19.2697 93.5121 PROVISIONAL 1886 1881 P_____________ SI252022 -19.2697 93.5121 48 991 0 162 207 155 150 1005 250 30 11 144
2022128S09090 2022 26 SI WA KARIM 2022-05-11 00:00:00 NR -19.6000 93.9000 PROVISIONAL 1882 1839 O_____________ tcvitals SI252022 -19.6000 93.9000 45 994 0 105 165 140 100 1005 250 30 9 101
2022128S09090 2022 26 SI WA KARIM 2022-05-11 03:00:00 NR -19.4399 94.4409 PROVISIONAL 1831 1757 P_____________ SI252022 -19.4399 94.4409 45 994 0 115 147 120 97 1005 250 30 12 66
2022128S09090 2022 26 SI WA KARIM 2022-05-11 06:00:00 NR -19.1000 95.1000 PROVISIONAL 1757 1694 O_____________ tcvitals SI252022 -19.1000 95.1000 45 994 0 126 130 100 95 1005 250 30 14 68
2022128S09090 2022 26 SI WA KARIM 2022-05-11 09:00:00 NR -18.8956 95.8320 PROVISIONAL 1694 1634 P_____________ SI252022 -18.8956 95.8320 42 995 0 103 162 130 90 1005 250 27 15 78
2022128S09090 2022 26 SI WA KARIM 2022-05-11 12:00:00 NR -18.8000 96.6000 PROVISIONAL 1634 O_____________ tcvitals SI252022 -18.8000 96.6000 39 997 0 80 195 160 85 1006 250 25 15 83

About IBTrACS Database

This database is a web-friendly format of International Best Track Archive for Climate Stewardship (IBTrACS), a global best track data archive curated by NOAA dating back to 1842.

Updated: 2022-07-01